sensor_id;sensor_type;location;lat;lon;timestamp;P1;durP1;ratioP1;P2;durP2;ratioP2
9234;SDS011;4652;42.716;23.218;2023-05-19T00:00:25;8.20;;;7.03;;
9234;SDS011;4652;42.716;23.218;2023-05-19T00:07:09;9.77;;;7.70;;
9234;SDS011;4652;42.716;23.218;2023-05-19T00:13:51;10.40;;;8.50;;
9234;SDS011;4652;42.716;23.218;2023-05-19T00:20:34;11.67;;;9.20;;
9234;SDS011;4652;42.716;23.218;2023-05-19T00:27:18;10.00;;;9.00;;
9234;SDS011;4652;42.716;23.218;2023-05-19T00:34:00;9.20;;;8.10;;
9234;SDS011;4652;42.716;23.218;2023-05-19T00:40:42;9.07;;;8.13;;
9234;SDS011;4652;42.716;23.218;2023-05-19T00:47:26;9.27;;;8.37;;
9234;SDS011;4652;42.716;23.218;2023-05-19T00:54:07;9.50;;;8.60;;
9234;SDS011;4652;42.716;23.218;2023-05-19T01:25:11;10.10;;;9.10;;
9234;SDS011;4652;42.716;23.218;2023-05-19T01:32:30;10.30;;;8.33;;
9234;SDS011;4652;42.716;23.218;2023-05-19T01:39:14;7.97;;;6.70;;
9234;SDS011;4652;42.716;23.218;2023-05-19T01:45:56;11.20;;;7.30;;
9234;SDS011;4652;42.716;23.218;2023-05-19T01:52:40;10.17;;;7.83;;
9234;SDS011;4652;42.716;23.218;2023-05-19T01:59:26;10.17;;;8.50;;
9234;SDS011;4652;42.716;23.218;2023-05-19T02:06:21;17.67;;;8.73;;
9234;SDS011;4652;42.716;23.218;2023-05-19T02:13:12;9.70;;;8.70;;
9234;SDS011;4652;42.716;23.218;2023-05-19T02:19:56;12.00;;;10.60;;
9234;SDS011;4652;42.716;23.218;2023-05-19T02:26:39;12.70;;;10.10;;
9234;SDS011;4652;42.716;23.218;2023-05-19T02:33:22;15.83;;;11.43;;
9234;SDS011;4652;42.716;23.218;2023-05-19T02:40:06;12.53;;;10.33;;
9234;SDS011;4652;42.716;23.218;2023-05-19T02:46:50;11.83;;;9.97;;
9234;SDS011;4652;42.716;23.218;2023-05-19T02:53:33;16.10;;;13.07;;
9234;SDS011;4652;42.716;23.218;2023-05-19T03:00:15;15.87;;;12.33;;
9234;SDS011;4652;42.716;23.218;2023-05-19T03:06:57;17.87;;;12.97;;
9234;SDS011;4652;42.716;23.218;2023-05-19T03:13:40;16.03;;;13.20;;
9234;SDS011;4652;42.716;23.218;2023-05-19T03:20:22;15.90;;;13.17;;
9234;SDS011;4652;42.716;23.218;2023-05-19T03:27:04;14.83;;;11.93;;
9234;SDS011;4652;42.716;23.218;2023-05-19T03:33:48;13.70;;;11.80;;
9234;SDS011;4652;42.716;23.218;2023-05-19T03:40:30;14.70;;;11.77;;
9234;SDS011;4652;42.716;23.218;2023-05-19T03:47:12;12.13;;;10.87;;
9234;SDS011;4652;42.716;23.218;2023-05-19T03:53:55;13.93;;;11.93;;
9234;SDS011;4652;42.716;23.218;2023-05-19T04:00:37;15.97;;;12.30;;
9234;SDS011;4652;42.716;23.218;2023-05-19T04:07:19;13.90;;;12.13;;
9234;SDS011;4652;42.716;23.218;2023-05-19T04:14:02;17.63;;;13.03;;
9234;SDS011;4652;42.716;23.218;2023-05-19T04:20:44;14.53;;;11.73;;
9234;SDS011;4652;42.716;23.218;2023-05-19T04:27:26;14.50;;;12.33;;
9234;SDS011;4652;42.716;23.218;2023-05-19T04:34:12;12.83;;;11.40;;
9234;SDS011;4652;42.716;23.218;2023-05-19T04:40:54;15.13;;;11.77;;
9234;SDS011;4652;42.716;23.218;2023-05-19T04:47:36;13.40;;;11.43;;
9234;SDS011;4652;42.716;23.218;2023-05-19T04:54:19;12.47;;;11.13;;
9234;SDS011;4652;42.716;23.218;2023-05-19T05:01:01;13.20;;;11.07;;
9234;SDS011;4652;42.716;23.218;2023-05-19T05:07:43;12.20;;;10.80;;
9234;SDS011;4652;42.716;23.218;2023-05-19T05:14:27;14.33;;;11.23;;
9234;SDS011;4652;42.716;23.218;2023-05-19T05:21:10;11.77;;;10.57;;
9234;SDS011;4652;42.716;23.218;2023-05-19T05:27:52;11.80;;;10.60;;
9234;SDS011;4652;42.716;23.218;2023-05-19T05:34:36;11.30;;;10.10;;
9234;SDS011;4652;42.716;23.218;2023-05-19T05:41:20;10.27;;;9.27;;
9234;SDS011;4652;42.716;23.218;2023-05-19T05:48:02;10.10;;;9.10;;
9234;SDS011;4652;42.716;23.218;2023-05-19T05:54:46;10.27;;;9.27;;
9234;SDS011;4652;42.716;23.218;2023-05-19T06:01:29;10.70;;;9.67;;
9234;SDS011;4652;42.716;23.218;2023-05-19T06:08:11;11.60;;;8.03;;
9234;SDS011;4652;42.716;23.218;2023-05-19T06:14:54;8.93;;;8.03;;
9234;SDS011;4652;42.716;23.218;2023-05-19T06:21:36;8.93;;;7.87;;
9234;SDS011;4652;42.716;23.218;2023-05-19T06:28:18;8.00;;;7.30;;
9234;SDS011;4652;42.716;23.218;2023-05-19T06:35:02;8.85;;;6.88;;
9234;SDS011;4652;42.716;23.218;2023-05-19T06:41:44;8.23;;;6.40;;
9234;SDS011;4652;42.716;23.218;2023-05-19T06:48:26;7.18;;;6.50;;
9234;SDS011;4652;42.716;23.218;2023-05-19T06:55:09;6.60;;;6.10;;
9234;SDS011;4652;42.716;23.218;2023-05-19T08:58:28;9.43;;;8.53;;
9234;SDS011;4652;42.716;23.218;2023-05-19T09:05:11;12.40;;;9.90;;
9234;SDS011;4652;42.716;23.218;2023-05-19T09:11:53;10.73;;;8.97;;
9234;SDS011;4652;42.716;23.218;2023-05-19T09:18:38;12.07;;;9.33;;
9234;SDS011;4652;42.716;23.218;2023-05-19T09:25:21;11.70;;;10.50;;
9234;SDS011;4652;42.716;23.218;2023-05-19T09:32:04;13.53;;;9.40;;
9234;SDS011;4652;42.716;23.218;2023-05-19T09:38:47;10.87;;;9.77;;
9234;SDS011;4652;42.716;23.218;2023-05-19T09:45:29;12.50;;;10.23;;
9234;SDS011;4652;42.716;23.218;2023-05-19T09:52:13;13.30;;;11.50;;
9234;SDS011;4652;42.716;23.218;2023-05-19T09:58:58;11.13;;;9.83;;
9234;SDS011;4652;42.716;23.218;2023-05-19T10:05:40;11.30;;;9.77;;
9234;SDS011;4652;42.716;23.218;2023-05-19T10:12:24;11.67;;;10.37;;
9234;SDS011;4652;42.716;23.218;2023-05-19T10:19:08;10.87;;;9.77;;
9234;SDS011;4652;42.716;23.218;2023-05-19T10:25:52;12.67;;;9.70;;
9234;SDS011;4652;42.716;23.218;2023-05-19T10:32:38;14.10;;;9.03;;
9234;SDS011;4652;42.716;23.218;2023-05-19T10:39:24;12.57;;;9.90;;
9234;SDS011;4652;42.716;23.218;2023-05-19T10:46:08;12.03;;;9.03;;
9234;SDS011;4652;42.716;23.218;2023-05-19T10:52:51;12.97;;;9.50;;
9234;SDS011;4652;42.716;23.218;2023-05-19T10:59:37;12.80;;;11.47;;
9234;SDS011;4652;42.716;23.218;2023-05-19T11:06:20;13.20;;;9.73;;
9234;SDS011;4652;42.716;23.218;2023-05-19T11:13:05;11.83;;;10.07;;
9234;SDS011;4652;42.716;23.218;2023-05-19T11:19:52;11.50;;;9.33;;
9234;SDS011;4652;42.716;23.218;2023-05-19T11:26:41;10.93;;;9.83;;
9234;SDS011;4652;42.716;23.218;2023-05-19T11:33:24;12.70;;;10.20;;
9234;SDS011;4652;42.716;23.218;2023-05-19T11:40:08;10.83;;;9.67;;
9234;SDS011;4652;42.716;23.218;2023-05-19T11:46:51;12.53;;;10.00;;
9234;SDS011;4652;42.716;23.218;2023-05-19T11:53:33;13.57;;;12.27;;
9234;SDS011;4652;42.716;23.218;2023-05-19T12:00:19;13.10;;;9.93;;
9234;SDS011;4652;42.716;23.218;2023-05-19T12:07:02;10.03;;;9.03;;
9234;SDS011;4652;42.716;23.218;2023-05-19T12:13:45;10.10;;;9.00;;
9234;SDS011;4652;42.716;23.218;2023-05-19T12:20:30;11.10;;;9.10;;
9234;SDS011;4652;42.716;23.218;2023-05-19T12:27:16;9.97;;;8.50;;
9234;SDS011;4652;42.716;23.218;2023-05-19T12:33:59;11.83;;;10.60;;
9234;SDS011;4652;42.716;23.218;2023-05-19T12:40:43;11.30;;;9.87;;
9234;SDS011;4652;42.716;23.218;2023-05-19T12:47:28;10.97;;;8.80;;
9234;SDS011;4652;42.716;23.218;2023-05-19T12:54:12;9.30;;;8.40;;
9234;SDS011;4652;42.716;23.218;2023-05-19T19:32:03;12.97;;;8.87;;
9234;SDS011;4652;42.716;23.218;2023-05-19T19:38:48;11.20;;;9.20;;
9234;SDS011;4652;42.716;23.218;2023-05-19T19:45:30;16.07;;;10.47;;
9234;SDS011;4652;42.716;23.218;2023-05-19T19:52:15;13.73;;;10.40;;
9234;SDS011;4652;42.716;23.218;2023-05-19T19:58:57;12.80;;;10.37;;
9234;SDS011;4652;42.716;23.218;2023-05-19T20:05:39;11.63;;;10.17;;
9234;SDS011;4652;42.716;23.218;2023-05-19T20:12:24;15.77;;;12.13;;
9234;SDS011;4652;42.716;23.218;2023-05-19T20:19:06;15.77;;;12.07;;
9234;SDS011;4652;42.716;23.218;2023-05-19T20:25:48;12.17;;;10.60;;
9234;SDS011;4652;42.716;23.218;2023-05-19T20:32:32;13.80;;;10.77;;
9234;SDS011;4652;42.716;23.218;2023-05-19T20:39:14;10.03;;;8.23;;
9234;SDS011;4652;42.716;23.218;2023-05-19T20:45:56;10.87;;;8.80;;
9234;SDS011;4652;42.716;23.218;2023-05-19T20:52:40;11.73;;;8.40;;
9234;SDS011;4652;42.716;23.218;2023-05-19T20:59:22;15.67;;;10.67;;
9234;SDS011;4652;42.716;23.218;2023-05-19T21:06:03;14.43;;;10.90;;
9234;SDS011;4652;42.716;23.218;2023-05-19T21:12:46;11.83;;;10.63;;
9234;SDS011;4652;42.716;23.218;2023-05-19T21:19:28;12.77;;;11.10;;
9234;SDS011;4652;42.716;23.218;2023-05-19T21:26:10;13.70;;;10.97;;
9234;SDS011;4652;42.716;23.218;2023-05-19T21:32:53;13.93;;;11.47;;
9234;SDS011;4652;42.716;23.218;2023-05-19T21:39:35;12.97;;;11.03;;
9234;SDS011;4652;42.716;23.218;2023-05-19T21:46:17;13.37;;;10.53;;
9234;SDS011;4652;42.716;23.218;2023-05-19T21:53:00;14.37;;;11.37;;
9234;SDS011;4652;42.716;23.218;2023-05-19T21:59:42;13.60;;;10.83;;
9234;SDS011;4652;42.716;23.218;2023-05-19T22:06:25;15.23;;;11.30;;
9234;SDS011;4652;42.716;23.218;2023-05-19T22:13:08;12.73;;;10.83;;
9234;SDS011;4652;42.716;23.218;2023-05-19T22:19:50;14.37;;;11.87;;
9234;SDS011;4652;42.716;23.218;2023-05-19T22:26:32;16.43;;;11.53;;
9234;SDS011;4652;42.716;23.218;2023-05-19T22:33:16;13.27;;;11.23;;
9234;SDS011;4652;42.716;23.218;2023-05-19T22:39:58;12.93;;;10.87;;
9234;SDS011;4652;42.716;23.218;2023-05-19T22:46:40;18.17;;;11.33;;
9234;SDS011;4652;42.716;23.218;2023-05-19T22:53:24;12.37;;;10.17;;
9234;SDS011;4652;42.716;23.218;2023-05-19T23:00:07;15.60;;;10.73;;
9234;SDS011;4652;42.716;23.218;2023-05-19T23:06:49;13.27;;;10.47;;
9234;SDS011;4652;42.716;23.218;2023-05-19T23:13:32;10.97;;;9.60;;
9234;SDS011;4652;42.716;23.218;2023-05-19T23:20:14;12.77;;;9.73;;
9234;SDS011;4652;42.716;23.218;2023-05-19T23:26:56;10.60;;;8.77;;
9234;SDS011;4652;42.716;23.218;2023-05-19T23:33:41;12.30;;;9.73;;
9234;SDS011;4652;42.716;23.218;2023-05-19T23:40:23;9.87;;;8.87;;
9234;SDS011;4652;42.716;23.218;2023-05-19T23:47:05;11.47;;;9.07;;
9234;SDS011;4652;42.716;23.218;2023-05-19T23:53:48;14.73;;;10.50;;
